Time;durP1;ratioP1;P1;durP2;ratioP2;P2;SDS_P1;SDS_P2;PMS_P1;PMS_P2;Temp;Humidity;BMP_temperature;BMP_pressure;BME280_temperature;BME280_humidity;BME280_pressure;Samples;Min_cycle;Max_cycle;Signal;HPM_P1;HPM_P2
2021/03/17 00:02:14;;;;;;;;;;;4.90;92.20;;;;;;4998937;28;87511;-67
2021/03/17 00:04:39;;;;;;;;;;;4.90;92.20;;;;;;4998768;28;87711;-67
2021/03/17 00:07:05;;;;;;;;;;;4.90;92.20;;;;;;5000028;28;87154;-67
2021/03/17 00:09:30;;;;;;;;;;;4.90;92.20;;;;;;5000181;28;87139;-67
2021/03/17 00:11:56;;;;;;;;;;;4.90;92.20;;;;;;5000847;28;87642;-67
2021/03/17 00:14:22;;;;;;;;;;;4.80;92.20;;;;;;5000952;28;86380;-67
2021/03/17 00:16:47;;;;;;;;;;;4.80;92.20;;;;;;5001660;28;87147;-67
2021/03/17 00:19:13;;;;;;;;;;;4.80;92.40;;;;;;5005177;28;88194;-67
2021/03/17 00:21:38;;;;;;;;;;;4.80;92.20;;;;;;5000522;28;88187;-67
2021/03/17 00:24:04;;;;;;;;;;;4.90;92.20;;;;;;4998035;28;87213;-68
2021/03/17 00:26:30;;;;;;;;;;;4.80;92.20;;;;;;4999026;28;87107;-67
2021/03/17 00:28:55;;;;;;;;;;;4.80;92.20;;;;;;5000497;28;87200;-67
2021/03/17 00:31:21;;;;;;;;;;;4.80;92.20;;;;;;5000412;28;87600;-67
2021/03/17 00:33:46;;;;;;;;;;;4.80;92.20;;;;;;5000274;28;87213;-67
2021/03/17 00:36:12;;;;;;;;;;;4.80;92.20;;;;;;5001412;28;87517;-67
2021/03/17 00:38:37;;;;;;;;;;;4.80;92.10;;;;;;5002279;28;86911;-67
2021/03/17 00:41:03;;;;;;;;;;;4.80;92.10;;;;;;5005573;28;87193;-67
2021/03/17 00:43:28;;;;;;;;;;;4.80;92.10;;;;;;4999959;28;88303;-67
2021/03/17 00:45:54;;;;;;;;;;;4.80;92.20;;;;;;4997140;28;88181;-67
2021/03/17 00:48:19;;;;;;;;;;;4.80;92.20;;;;;;4998125;28;88374;-67
2021/03/17 00:50:45;;;;;;;;;;;4.80;92.20;;;;;;4998983;28;88444;-67
2021/03/17 00:53:10;;;;;;;;;;;4.80;92.20;;;;;;5000491;28;87197;-67
2021/03/17 00:55:36;;;;;;;;;;;4.80;92.20;;;;;;5000636;28;87571;-67
2021/03/17 00:58:01;;;;;;;;;;;4.80;92.20;;;;;;5000535;28;88318;-68
2021/03/17 01:00:27;;;;;;;;;;;4.80;92.20;;;;;;5004410;28;87229;-68
2021/03/17 01:02:52;;;;;;;;;;;4.80;92.20;;;;;;5002047;28;88903;-67
2021/03/17 01:05:19;;;;;;;;;;;4.80;92.20;;;;;;4998911;28;88751;-67
2021/03/17 01:07:44;;;;;;;;;;;4.80;92.20;;;;;;5001219;28;87448;-67
2021/03/17 01:10:22;;;;;;;;;;;4.80;92.20;;;;;;4997015;28;90490;-68
2021/03/17 01:12:48;;;;;;;;;;;4.80;92.20;;;;;;5002070;28;87139;-67
2021/03/17 01:15:16;;;;;;;;;;;4.80;92.20;;;;;;4999927;28;87631;-67
2021/03/17 01:17:42;;;;;;;;;;;4.80;92.20;;;;;;4999685;28;89491;-67
2021/03/17 01:20:08;;;;;;;;;;;4.70;92.10;;;;;;5001816;28;87183;-67
2021/03/17 01:22:33;;;;;;;;;;;4.70;92.10;;;;;;5004591;28;89056;-67
2021/03/17 01:24:59;;;;;;;;;;;4.80;92.20;;;;;;5002004;28;87161;-67
2021/03/17 01:27:24;;;;;;;;;;;4.80;92.20;;;;;;4999853;28;87299;-67
2021/03/17 01:29:50;;;;;;;;;;;4.70;92.10;;;;;;4997333;28;87731;-68
2021/03/17 01:32:15;;;;;;;;;;;4.70;92.10;;;;;;4998875;28;87186;-67
2021/03/17 01:34:41;;;;;;;;;;;4.70;92.10;;;;;;4999569;28;88134;-67
2021/03/17 01:37:06;;;;;;;;;;;4.70;92.20;;;;;;5000110;28;88178;-67
2021/03/17 01:39:32;;;;;;;;;;;4.70;92.10;;;;;;4999874;28;87183;-67
2021/03/17 01:41:57;;;;;;;;;;;4.70;92.20;;;;;;5001081;28;87150;-67
2021/03/17 01:44:23;;;;;;;;;;;4.70;92.20;;;;;;5003153;28;88394;-67
2021/03/17 01:46:48;;;;;;;;;;;4.70;92.40;;;;;;4997443;28;88051;-68
2021/03/17 01:49:14;;;;;;;;;;;4.70;92.20;;;;;;4997005;28;87632;-67
2021/03/17 01:51:40;;;;;;;;;;;4.70;92.20;;;;;;4999442;28;86441;-68
2021/03/17 01:54:06;;;;;;;;;;;4.70;92.10;;;;;;5000391;28;87237;-67
2021/03/17 01:56:32;;;;;;;;;;;4.70;92.20;;;;;;4998262;28;87136;-67
2021/03/17 01:58:58;;;;;;;;;;;4.60;92.20;;;;;;4999058;28;88122;-67
2021/03/17 02:01:24;;;;;;;;;;;4.70;92.20;;;;;;4999763;28;87163;-67
2021/03/17 02:03:49;;;;;;;;;;;4.70;92.20;;;;;;5000645;28;87458;-67
2021/03/17 02:06:15;;;;;;;;;;;4.60;92.10;;;;;;5002682;28;87906;-68
2021/03/17 02:08:42;;;;;;;;;;;4.60;92.10;;;;;;4996726;28;88016;-67
2021/03/17 02:11:09;;;;;;;;;;;4.70;92.20;;;;;;5000568;28;87941;-67
2021/03/17 02:13:43;;;;;;;;;;;4.70;92.10;;;;;;5001298;28;87485;-67
2021/03/17 02:16:28;;;;;;;;;;;4.60;92.10;;;;;;4996968;28;86955;-67
2021/03/17 02:19:05;;;;;;;;;;;4.60;92.10;;;;;;4999364;28;87190;-67
2021/03/17 02:21:49;;;;;;;;;;;4.60;92.10;;;;;;4996898;28;87424;-68
2021/03/17 02:24:28;;;;;;;;;;;4.60;92.20;;;;;;4997320;28;89093;-67
2021/03/17 02:27:00;;;;;;;;;;;4.60;92.20;;;;;;4999100;28;87249;-68
2021/03/17 02:29:44;;;;;;;;;;;4.60;92.20;;;;;;4999450;28;87663;-68
2021/03/17 02:32:45;;;;;;;;;;;4.60;92.20;;;;;;4998264;28;87251;-67
2021/03/17 02:35:11;;;;;;;;;;;4.60;92.20;;;;;;4955899;28;87882;-67
2021/03/17 02:37:39;;;;;;;;;;;4.60;92.20;;;;;;4989230;28;88007;-68
2021/03/17 02:40:04;;;;;;;;;;;4.60;92.20;;;;;;5000159;28;87871;-67
2021/03/17 02:42:35;;;;;;;;;;;4.60;92.20;;;;;;4997767;28;87555;-67
2021/03/17 02:45:12;;;;;;;;;;;4.60;92.20;;;;;;4996707;28;88265;-67
2021/03/17 02:47:43;;;;;;;;;;;4.60;92.10;;;;;;4996767;28;87280;-67
2021/03/17 02:50:10;;;;;;;;;;;4.60;92.20;;;;;;4996501;28;88634;-67
2021/03/17 02:52:42;;;;;;;;;;;4.60;92.20;;;;;;4999113;28;87762;-67
2021/03/17 02:55:08;;;;;;;;;;;4.60;92.20;;;;;;4995968;28;89527;-67
2021/03/17 02:57:35;;;;;;;;;;;4.60;92.20;;;;;;4996027;28;88769;-67
2021/03/17 03:00:01;;;;;;;;;;;4.60;92.20;;;;;;4999291;28;87123;-68
2021/03/17 03:02:27;;;;;;;;;;;4.60;92.10;;;;;;4997749;28;87582;-67
2021/03/17 03:04:54;;;;;;;;;;;4.50;92.10;;;;;;4997633;28;88178;-67
2021/03/17 03:07:22;;;;;;;;;;;4.50;92.20;;;;;;4998098;28;86412;-67
2021/03/17 03:09:48;;;;;;;;;;;4.60;92.20;;;;;;4996571;28;88743;-67
2021/03/17 03:12:14;;;;;;;;;;;4.60;92.10;;;;;;4998258;28;89722;-67
2021/03/17 03:14:39;;;;;;;;;;;4.60;92.10;;;;;;4996032;28;88170;-67
2021/03/17 03:17:06;;;;;;;;;;;4.50;92.10;;;;;;4997142;28;88626;-67
2021/03/17 03:19:34;;;;;;;;;;;4.50;92.10;;;;;;4997608;28;87248;-67
2021/03/17 03:22:18;;;;;;;;;;;4.50;92.10;;;;;;4999646;28;87715;-67
2021/03/17 03:24:44;;;;;;;;;;;4.50;92.20;;;;;;4995460;28;88165;-67
2021/03/17 03:27:12;;;;;;;;;;;4.50;92.20;;;;;;4996174;28;87186;-67
2021/03/17 03:29:38;;;;;;;;;;;4.50;92.10;;;;;;4998789;28;87482;-67
2021/03/17 03:32:04;;;;;;;;;;;4.50;92.00;;;;;;4998018;28;87573;-67
2021/03/17 03:34:30;;;;;;;;;;;4.50;92.10;;;;;;4998823;28;87097;-67
2021/03/17 03:36:56;;;;;;;;;;;4.50;92.10;;;;;;4996027;28;87868;-67
2021/03/17 03:39:21;;;;;;;;;;;4.50;92.10;;;;;;4995976;28;88151;-67
2021/03/17 03:41:47;;;;;;;;;;;4.50;92.10;;;;;;4995507;28;88079;-67
2021/03/17 03:44:12;;;;;;;;;;;4.50;92.20;;;;;;4996120;28;87814;-67
2021/03/17 03:46:39;;;;;;;;;;;4.50;92.20;;;;;;4997798;28;87125;-67
2021/03/17 03:49:05;;;;;;;;;;;4.50;92.20;;;;;;4998341;28;87493;-67
2021/03/17 03:51:31;;;;;;;;;;;4.50;92.20;;;;;;4998147;28;88056;-68
2021/03/17 03:54:05;;;;;;;;;;;4.50;92.20;;;;;;4998506;28;87135;-67
2021/03/17 03:56:38;;;;;;;;;;;4.50;92.10;;;;;;4999261;28;87545;-67
2021/03/17 03:59:18;;;;;;;;;;;4.50;92.20;;;;;;5000104;28;87180;-67
2021/03/17 04:01:46;;;;;;;;;;;4.50;92.10;;;;;;4997771;28;88605;-67
2021/03/17 04:04:14;;;;;;;;;;;4.50;92.10;;;;;;4997408;28;88616;-67
2021/03/17 04:06:41;;;;;;;;;;;4.40;92.20;;;;;;4997335;28;87235;-67
2021/03/17 04:09:08;;;;;;;;;;;4.40;92.20;;;;;;4995838;28;87155;-67
2021/03/17 04:11:34;;;;;;;;;;;4.40;92.20;;;;;;4995312;28;88182;-67
2021/03/17 04:14:03;;;;;;;;;;;4.40;92.20;;;;;;4998417;28;87131;-67
2021/03/17 04:16:30;;;;;;;;;;;4.40;92.20;;;;;;5001981;28;87118;-67
2021/03/17 04:18:56;;;;;;;;;;;4.40;92.10;;;;;;5003493;28;87690;-67
2021/03/17 04:21:26;;;;;;;;;;;4.40;92.10;;;;;;5001922;28;87351;-67
2021/03/17 04:23:53;;;;;;;;;;;4.40;92.20;;;;;;5001763;28;88028;-67
2021/03/17 04:26:19;;;;;;;;;;;4.40;92.20;;;;;;5001649;28;87156;-67
2021/03/17 04:28:46;;;;;;;;;;;4.40;92.20;;;;;;4999481;28;88074;-67
2021/03/17 04:31:12;;;;;;;;;;;4.40;92.20;;;;;;4999247;28;88302;-67
2021/03/17 04:33:38;;;;;;;;;;;4.40;92.20;;;;;;4999621;28;87134;-67
2021/03/17 04:36:05;;;;;;;;;;;4.40;92.10;;;;;;5000313;28;87467;-67
2021/03/17 04:38:30;;;;;;;;;;;4.40;92.20;;;;;;4999731;28;87216;-67
2021/03/17 04:40:56;;;;;;;;;;;4.40;92.20;;;;;;5002170;28;87140;-67
2021/03/17 04:43:22;;;;;;;;;;;4.40;92.20;;;;;;4998597;28;88410;-67
2021/03/17 04:45:48;;;;;;;;;;;4.40;92.20;;;;;;5000637;28;86434;-67
2021/03/17 04:48:14;;;;;;;;;;;4.40;92.10;;;;;;5000517;28;87153;-67
2021/03/17 04:50:40;;;;;;;;;;;4.40;92.10;;;;;;5001187;28;87155;-67
2021/03/17 04:53:08;;;;;;;;;;;4.40;92.10;;;;;;5001439;28;88078;-67
2021/03/17 04:55:34;;;;;;;;;;;4.40;92.10;;;;;;4999059;28;88490;-67
2021/03/17 04:58:00;;;;;;;;;;;4.40;92.10;;;;;;4998186;28;88259;-67
2021/03/17 05:00:25;;;;;;;;;;;4.30;92.10;;;;;;4997938;28;87406;-67
2021/03/17 05:03:01;;;;;;;;;;;4.40;92.20;;;;;;5004650;28;88400;-67
2021/03/17 05:05:30;;;;;;;;;;;4.30;92.10;;;;;;5002026;28;87186;-67
2021/03/17 05:07:56;;;;;;;;;;;4.30;92.10;;;;;;4998328;28;88822;-67
2021/03/17 05:10:24;;;;;;;;;;;4.30;92.10;;;;;;4998003;28;86930;-67
2021/03/17 05:12:50;;;;;;;;;;;4.30;92.10;;;;;;5002337;28;87145;-67
2021/03/17 05:15:15;;;;;;;;;;;4.30;92.20;;;;;;5001343;28;88633;-67
2021/03/17 05:17:43;;;;;;;;;;;4.30;92.10;;;;;;5000179;28;89085;-67
2021/03/17 05:20:11;;;;;;;;;;;4.30;92.10;;;;;;4999313;28;87145;-67
2021/03/17 05:22:37;;;;;;;;;;;4.30;92.10;;;;;;5004907;28;87314;-67
2021/03/17 05:25:05;;;;;;;;;;;4.30;92.10;;;;;;4999733;28;87166;-67
2021/03/17 05:27:32;;;;;;;;;;;4.30;92.20;;;;;;5000483;28;89302;-67
2021/03/17 05:29:58;;;;;;;;;;;4.30;92.10;;;;;;5000741;28;88104;-67
2021/03/17 05:32:25;;;;;;;;;;;4.30;92.10;;;;;;4999404;28;87134;-67
2021/03/17 05:34:55;;;;;;;;;;;4.30;92.10;;;;;;4997940;28;87575;-67
2021/03/17 05:37:21;;;;;;;;;;;4.30;92.10;;;;;;4996575;28;88196;-67
2021/03/17 05:39:47;;;;;;;;;;;4.30;92.10;;;;;;5001943;28;87833;-67
2021/03/17 05:42:13;;;;;;;;;;;4.30;92.10;;;;;;4999333;28;89341;-67
2021/03/17 05:44:40;;;;;;;;;;;4.30;92.20;;;;;;5003903;28;88748;-67
2021/03/17 05:47:06;;;;;;;;;;;4.30;92.10;;;;;;5000752;28;87859;-67
2021/03/17 05:49:32;;;;;;;;;;;4.30;92.10;;;;;;4998663;28;88205;-67
2021/03/17 05:51:58;;;;;;;;;;;4.30;92.10;;;;;;5000146;28;87208;-67
2021/03/17 05:54:23;;;;;;;;;;;4.30;92.10;;;;;;4999257;28;87495;-67
2021/03/17 05:56:51;;;;;;;;;;;4.20;92.10;;;;;;4999736;28;87454;-67
2021/03/17 05:59:17;;;;;;;;;;;4.30;92.10;;;;;;4998428;28;86437;-67
2021/03/17 06:01:43;;;;;;;;;;;4.30;92.10;;;;;;4998715;28;87184;-67
2021/03/17 06:04:09;;;;;;;;;;;4.20;92.10;;;;;;4999564;28;88088;-67
2021/03/17 06:06:37;;;;;;;;;;;4.30;92.10;;;;;;5003258;28;88101;-67
2021/03/17 06:09:03;;;;;;;;;;;4.20;92.10;;;;;;4996945;28;88737;-67
2021/03/17 06:11:30;;;;;;;;;;;4.20;92.10;;;;;;4997624;28;87664;-67
2021/03/17 06:13:56;;;;;;;;;;;4.20;92.00;;;;;;4999723;28;87458;-67
2021/03/17 06:16:23;;;;;;;;;;;4.30;92.10;;;;;;4998975;28;89118;-67
2021/03/17 06:18:55;;;;;;;;;;;4.20;92.10;;;;;;4999101;28;87228;-67
2021/03/17 06:21:21;;;;;;;;;;;4.30;92.10;;;;;;4998198;28;87193;-67
2021/03/17 06:23:47;;;;;;;;;;;4.20;92.10;;;;;;4999732;28;87661;-67
2021/03/17 06:26:12;;;;;;;;;;;4.30;92.10;;;;;;5000377;28;87154;-67
2021/03/17 06:28:38;;;;;;;;;;;4.20;92.00;;;;;;5003295;28;87838;-67
2021/03/17 06:31:04;;;;;;;;;;;4.20;92.00;;;;;;5000154;28;89096;-67
2021/03/17 06:33:30;;;;;;;;;;;4.20;92.00;;;;;;5000804;28;88459;-67
2021/03/17 06:36:15;;;;;;;;;;;4.20;92.00;;;;;;4999291;28;87772;-67
2021/03/17 06:38:42;;;;;;;;;;;4.20;92.10;;;;;;4998208;28;87188;-67
2021/03/17 06:41:07;;;;;;;;;;;4.30;92.10;;;;;;4998618;28;87170;-67
2021/03/17 06:43:36;;;;;;;;;;;4.20;92.00;;;;;;4999077;28;87678;-67
2021/03/17 06:46:03;;;;;;;;;;;4.20;92.00;;;;;;4998241;28;88031;-67
2021/03/17 06:48:29;;;;;;;;;;;4.20;92.10;;;;;;4999988;28;87359;-67
2021/03/17 06:51:02;;;;;;;;;;;4.20;92.10;;;;;;5000309;28;88034;-67
2021/03/17 06:53:34;;;;;;;;;;;4.20;92.00;;;;;;5000374;28;87202;-67
2021/03/17 06:56:09;;;;;;;;;;;4.20;92.00;;;;;;4997604;28;88563;-67
2021/03/17 06:58:38;;;;;;;;;;;4.30;92.00;;;;;;5000386;28;87104;-67
2021/03/17 07:01:04;;;;;;;;;;;4.20;91.90;;;;;;4996755;28;88026;-67
2021/03/17 07:03:30;;;;;;;;;;;4.20;92.00;;;;;;4997590;28;87636;-67
2021/03/17 07:05:55;;;;;;;;;;;4.20;92.00;;;;;;4999283;28;87172;-67
2021/03/17 07:08:28;;;;;;;;;;;4.20;92.00;;;;;;4998772;28;87152;-67
2021/03/17 07:11:00;;;;;;;;;;;4.20;92.00;;;;;;4996554;28;89404;-67
2021/03/17 07:13:27;;;;;;;;;;;4.30;92.00;;;;;;5002548;28;86427;-67
2021/03/17 07:15:53;;;;;;;;;;;4.20;92.10;;;;;;4998735;28;87491;-67
2021/03/17 07:18:23;;;;;;;;;;;4.20;92.00;;;;;;4998356;28;87155;-67
2021/03/17 07:21:02;;;;;;;;;;;4.30;92.00;;;;;;4999821;28;88117;-67
2021/03/17 07:23:47;;;;;;;;;;;4.20;92.00;;;;;;4995439;28;88340;-67
2021/03/17 07:26:23;;;;;;;;;;;4.20;92.00;;;;;;4998444;28;87142;-67
2021/03/17 07:28:53;;;;;;;;;;;4.20;92.00;;;;;;4998553;28;88391;-67
2021/03/17 07:31:20;;;;;;;;;;;4.20;92.00;;;;;;4997293;28;88212;-67
2021/03/17 07:33:46;;;;;;;;;;;4.20;92.00;;;;;;5002314;28;88416;-67
2021/03/17 07:36:12;;;;;;;;;;;4.20;92.00;;;;;;4997448;28;88054;-67
2021/03/17 07:38:38;;;;;;;;;;;4.20;92.00;;;;;;4998041;28;87686;-67
2021/03/17 07:41:04;;;;;;;;;;;4.20;92.00;;;;;;4997442;28;88495;-67
2021/03/17 07:43:30;;;;;;;;;;;4.20;91.90;;;;;;4999617;28;88216;-67
2021/03/17 07:45:56;;;;;;;;;;;4.20;92.00;;;;;;4998851;28;89527;-67
2021/03/17 07:48:23;;;;;;;;;;;4.20;92.00;;;;;;5001469;28;87877;-67
2021/03/17 07:50:50;;;;;;;;;;;4.20;92.00;;;;;;4999961;28;88291;-67
2021/03/17 07:53:19;;;;;;;;;;;4.20;92.00;;;;;;5001229;28;88789;-67
2021/03/17 07:55:45;;;;;;;;;;;4.20;91.90;;;;;;5002164;28;87631;-67
2021/03/17 07:58:13;;;;;;;;;;;4.20;91.90;;;;;;5000135;28;87900;-67
2021/03/17 08:00:39;;;;;;;;;;;4.20;91.90;;;;;;5003018;28;87468;-67
2021/03/17 08:03:05;;;;;;;;;;;4.20;92.00;;;;;;5003037;28;86440;-67
2021/03/17 08:05:31;;;;;;;;;;;4.20;92.00;;;;;;5002271;28;87270;-67
2021/03/17 08:07:56;;;;;;;;;;;4.20;92.00;;;;;;5000882;28;87144;-67
2021/03/17 08:10:22;;;;;;;;;;;4.20;92.00;;;;;;4999145;28;88927;-67
2021/03/17 08:12:48;;;;;;;;;;;4.20;92.00;;;;;;5000436;28;87199;-67
2021/03/17 08:15:14;;;;;;;;;;;4.20;92.00;;;;;;4999228;28;87716;-67
2021/03/17 08:17:40;;;;;;;;;;;4.20;92.00;;;;;;5004832;28;88654;-67
2021/03/17 08:20:19;;;;;;;;;;;4.20;92.00;;;;;;5003266;28;87360;-67
2021/03/17 08:22:45;;;;;;;;;;;4.20;91.90;;;;;;4999861;28;89697;-67
2021/03/17 08:25:12;;;;;;;;;;;4.20;91.90;;;;;;5002619;28;87150;-67
2021/03/17 08:27:37;;;;;;;;;;;4.20;91.90;;;;;;5001647;28;87013;-67
2021/03/17 08:30:05;;;;;;;;;;;4.20;91.90;;;;;;4999781;28;89425;-67
2021/03/17 08:32:54;;;;;;;;;;;4.20;91.90;;;;;;5001524;28;88693;-67
2021/03/17 08:35:20;;;;;;;;;;;4.20;91.80;;;;;;4992019;28;88217;-67
2021/03/17 08:37:46;;;;;;;;;;;4.20;91.90;;;;;;4998747;28;88067;-67
2021/03/17 08:40:32;;;;;;;;;;;4.20;91.90;;;;;;5002004;28;87148;-67
2021/03/17 08:42:58;;;;;;;;;;;4.30;91.90;;;;;;4998885;28;87183;-67
2021/03/17 08:45:23;;;;;;;;;;;4.20;91.90;;;;;;4999895;28;87165;-67
2021/03/17 08:47:49;;;;;;;;;;;4.30;91.80;;;;;;4999785;28;87134;-67
2021/03/17 08:50:15;;;;;;;;;;;4.20;91.80;;;;;;4999910;28;88006;-67
2021/03/17 08:52:43;;;;;;;;;;;4.20;91.90;;;;;;5001260;28;86377;-67
2021/03/17 08:55:18;;;;;;;;;;;4.20;91.90;;;;;;4998029;28;87155;-67
2021/03/17 08:58:16;;;;;;;;;;;4.20;91.90;;;;;;4998853;28;88255;-67
2021/03/17 09:00:45;;;;;;;;;;;4.20;91.90;;;;;;4962462;28;89885;-67
2021/03/17 09:03:29;;;;;;;;;;;4.30;91.90;;;;;;5002142;28;88595;-67
2021/03/17 09:06:15;;;;;;;;;;;4.20;91.80;;;;;;5000743;28;87562;-67
2021/03/17 09:08:46;;;;;;;;;;;4.20;91.90;;;;;;4994379;28;87378;-67
2021/03/17 09:11:32;;;;;;;;;;;4.20;91.90;;;;;;5001723;28;87325;-67
2021/03/17 09:14:00;;;;;;;;;;;4.20;91.90;;;;;;5002279;28;87159;-67
2021/03/17 09:16:25;;;;;;;;;;;4.20;91.90;;;;;;4998504;28;87261;-67
2021/03/17 09:19:04;;;;;;;;;;;4.20;91.90;;;;;;4997604;28;87272;-67
2021/03/17 09:24:34;;;;;;;;;;;4.30;91.80;;;;;;5003247;28;87146;-67
2021/03/17 09:27:03;;;;;;;;;;;4.20;91.90;;;;;;5000525;28;88122;-67
2021/03/17 09:29:29;;;;;;;;;;;4.20;91.90;;;;;;5001413;28;90087;-67
2021/03/17 09:31:54;;;;;;;;;;;4.20;91.90;;;;;;5000706;28;87227;-67
2021/03/17 09:34:30;;;;;;;;;;;4.20;91.90;;;;;;5001205;28;87224;-67
2021/03/17 09:37:05;;;;;;;;;;;4.20;91.90;;;;;;5002290;28;87175;-67
2021/03/17 09:39:31;;;;;;;;;;;4.20;91.90;;;;;;4998833;28;87933;-67
2021/03/17 09:41:57;;;;;;;;;;;4.20;91.90;;;;;;5000784;28;87804;-67
2021/03/17 09:44:22;;;;;;;;;;;4.20;91.90;;;;;;5002378;28;86945;-67
2021/03/17 09:46:52;;;;;;;;;;;4.20;91.90;;;;;;5003617;28;87669;-67
2021/03/17 09:49:18;;;;;;;;;;;4.20;91.90;;;;;;5001574;28;87750;-67
2021/03/17 09:51:48;;;;;;;;;;;4.20;91.90;;;;;;4999165;28;88118;-67
2021/03/17 09:54:15;;;;;;;;;;;4.20;91.90;;;;;;4999871;28;87623;-67
2021/03/17 09:56:48;;;;;;;;;;;4.30;91.90;;;;;;5000784;28;88850;-67
2021/03/17 09:59:14;;;;;;;;;;;4.20;91.90;;;;;;4998575;28;88239;-67
2021/03/17 10:01:50;;;;;;;;;;;4.20;91.90;;;;;;4999258;28;87198;-67
2021/03/17 10:04:18;;;;;;;;;;;4.20;91.90;;;;;;5000438;28;87529;-67
2021/03/17 10:06:44;;;;;;;;;;;4.20;91.90;;;;;;5000675;28;88862;-67
2021/03/17 10:09:10;;;;;;;;;;;4.20;91.90;;;;;;5004309;28;86398;-67
2021/03/17 10:11:36;;;;;;;;;;;4.20;92.00;;;;;;4999489;28;87162;-67
2021/03/17 10:14:01;;;;;;;;;;;4.20;92.00;;;;;;5000482;28;87257;-67
2021/03/17 10:16:27;;;;;;;;;;;4.20;92.00;;;;;;4999926;28;88098;-67
2021/03/17 10:18:52;;;;;;;;;;;4.20;92.00;;;;;;4999298;28;88371;-67
2021/03/17 10:21:24;;;;;;;;;;;4.20;91.90;;;;;;4999160;28;87236;-67
2021/03/17 10:23:50;;;;;;;;;;;4.30;92.00;;;;;;4996336;28;87353;-67
2021/03/17 10:26:16;;;;;;;;;;;4.20;92.00;;;;;;4996559;28;87985;-67
2021/03/17 10:28:41;;;;;;;;;;;4.20;92.00;;;;;;4997846;28;87148;-67
2021/03/17 10:31:07;;;;;;;;;;;4.30;92.00;;;;;;5001229;28;87521;-67
2021/03/17 10:33:32;;;;;;;;;;;4.20;92.00;;;;;;4999351;28;86459;-67
2021/03/17 10:35:58;;;;;;;;;;;4.20;92.00;;;;;;4999969;28;87233;-67
2021/03/17 10:38:26;;;;;;;;;;;4.20;92.00;;;;;;4999260;28;89710;-67
2021/03/17 10:40:51;;;;;;;;;;;4.20;92.00;;;;;;4996775;28;88055;-67
2021/03/17 10:43:18;;;;;;;;;;;4.20;92.00;;;;;;4996517;28;88601;-67
2021/03/17 10:45:45;;;;;;;;;;;4.20;92.00;;;;;;4999731;28;89040;-67
2021/03/17 10:48:12;;;;;;;;;;;4.20;92.00;;;;;;4997672;28;87212;-67
2021/03/17 10:50:38;;;;;;;;;;;4.20;92.00;;;;;;4996923;28;88028;-67
2021/03/17 10:53:21;;;;;;;;;;;4.20;92.10;;;;;;4998656;28;88154;-67
2021/03/17 10:55:47;;;;;;;;;;;4.20;92.10;;;;;;4998687;28;87720;-67
2021/03/17 10:58:14;;;;;;;;;;;4.20;92.00;;;;;;4997941;28;87336;-67
2021/03/17 11:00:40;;;;;;;;;;;4.20;92.10;;;;;;4999901;28;87865;-67
2021/03/17 11:03:22;;;;;;;;;;;4.20;92.10;;;;;;4999820;28;87225;-67
2021/03/17 11:05:48;;;;;;;;;;;4.20;92.10;;;;;;4999272;28;89042;-67
2021/03/17 11:08:13;;;;;;;;;;;4.20;92.10;;;;;;4999511;28;87238;-67
2021/03/17 11:10:46;;;;;;;;;;;4.20;92.10;;;;;;4998612;28;87515;-67
2021/03/17 11:13:11;;;;;;;;;;;4.20;92.10;;;;;;4995323;28;89391;-67
2021/03/17 11:15:44;;;;;;;;;;;4.20;92.10;;;;;;4999777;28;87252;-67
2021/03/17 11:18:18;;;;;;;;;;;4.20;92.10;;;;;;4999218;28;87496;-67
2021/03/17 11:20:44;;;;;;;;;;;4.20;92.10;;;;;;4996929;28;87166;-67
2021/03/17 11:23:16;;;;;;;;;;;4.20;92.10;;;;;;4999505;28;87673;-67
2021/03/17 11:25:42;;;;;;;;;;;4.20;92.00;;;;;;5003669;28;87167;-67
2021/03/17 11:28:14;;;;;;;;;;;4.20;92.00;;;;;;5003430;28;87133;-67
2021/03/17 11:30:49;;;;;;;;;;;4.20;92.30;;;;;;5001667;28;88129;-67
2021/03/17 11:33:15;;;;;;;;;;;4.20;92.10;;;;;;5003637;28;88029;-67
2021/03/17 11:35:41;;;;;;;;;;;4.20;92.10;;;;;;5005187;28;87314;-67
2021/03/17 11:38:07;;;;;;;;;;;4.20;92.00;;;;;;5002238;28;88809;-67
2021/03/17 11:40:33;;;;;;;;;;;4.20;92.00;;;;;;5003528;28;87191;-67
2021/03/17 11:43:12;;;;;;;;;;;4.20;92.10;;;;;;5003908;28;87255;-67
2021/03/17 11:45:38;;;;;;;;;;;4.20;92.10;;;;;;4999510;28;87857;-67
2021/03/17 11:48:04;;;;;;;;;;;4.20;92.10;;;;;;4999801;28;86519;-67
2021/03/17 11:50:29;;;;;;;;;;;4.20;92.10;;;;;;5000259;28;88566;-67
2021/03/17 11:52:55;;;;;;;;;;;4.20;92.10;;;;;;5000974;28;89403;-67
2021/03/17 11:55:21;;;;;;;;;;;4.20;92.10;;;;;;5001814;28;88084;-67
2021/03/17 11:57:47;;;;;;;;;;;4.20;92.10;;;;;;5004800;28;88272;-67
2021/03/17 12:00:13;;;;;;;;;;;4.20;92.10;;;;;;5002209;28;87250;-67
2021/03/17 12:02:38;;;;;;;;;;;4.20;92.10;;;;;;5000879;28;88927;-67
2021/03/17 12:05:05;;;;;;;;;;;4.20;92.10;;;;;;5001988;28;87633;-67
2021/03/17 12:07:30;;;;;;;;;;;4.20;92.10;;;;;;5000774;28;87314;-67
2021/03/17 12:09:56;;;;;;;;;;;4.20;92.10;;;;;;5000323;28;87171;-67
2021/03/17 12:12:21;;;;;;;;;;;4.20;92.10;;;;;;4999552;28;86899;-67
2021/03/17 12:14:47;;;;;;;;;;;4.20;92.10;;;;;;4999715;28;87154;-67
2021/03/17 12:17:12;;;;;;;;;;;4.20;92.10;;;;;;4999498;28;87196;-67
2021/03/17 12:19:38;;;;;;;;;;;4.20;92.10;;;;;;5002319;28;89265;-67
2021/03/17 12:22:04;;;;;;;;;;;4.20;92.10;;;;;;5001683;28;87772;-67
2021/03/17 12:24:29;;;;;;;;;;;4.20;92.00;;;;;;5002528;28;88268;-67
2021/03/17 12:26:55;;;;;;;;;;;4.20;92.10;;;;;;5000986;28;87420;-67
2021/03/17 12:29:20;;;;;;;;;;;4.20;92.10;;;;;;4998581;28;87274;-67
2021/03/17 12:31:46;;;;;;;;;;;4.20;92.10;;;;;;4999395;28;87712;-67
2021/03/17 12:34:11;;;;;;;;;;;4.20;92.20;;;;;;4999926;28;87165;-67
2021/03/17 12:36:37;;;;;;;;;;;4.20;92.10;;;;;;5000383;28;87315;-67
2021/03/17 12:39:03;;;;;;;;;;;4.20;92.10;;;;;;4998431;28;88279;-67
2021/03/17 12:41:29;;;;;;;;;;;4.20;92.10;;;;;;5001587;28;87556;-67
2021/03/17 12:43:54;;;;;;;;;;;4.20;92.10;;;;;;4998111;28;88580;-67
2021/03/17 12:46:20;;;;;;;;;;;4.20;92.10;;;;;;5000325;28;87156;-67
2021/03/17 12:48:45;;;;;;;;;;;4.20;92.20;;;;;;5001458;28;87149;-67
2021/03/17 12:51:11;;;;;;;;;;;4.20;92.20;;;;;;5002396;28;88671;-67
2021/03/17 12:53:36;;;;;;;;;;;4.20;92.10;;;;;;5002862;28;87130;-67
2021/03/17 12:56:03;;;;;;;;;;;4.20;92.10;;;;;;5000163;28;87910;-67
2021/03/17 12:58:30;;;;;;;;;;;4.20;92.10;;;;;;4999148;28;88344;-67
2021/03/17 13:00:56;;;;;;;;;;;4.20;92.10;;;;;;5002640;28;87957;-67
2021/03/17 13:03:23;;;;;;;;;;;4.20;92.20;;;;;;5002261;28;88037;-67
2021/03/17 13:05:48;;;;;;;;;;;4.20;92.20;;;;;;5002192;28;88111;-67
2021/03/17 13:08:14;;;;;;;;;;;4.20;92.20;;;;;;5001685;28;88165;-67
2021/03/17 13:10:39;;;;;;;;;;;4.20;92.20;;;;;;5001105;28;88342;-67
2021/03/17 13:13:05;;;;;;;;;;;4.20;92.20;;;;;;4998424;28;88459;-67
2021/03/17 13:15:30;;;;;;;;;;;4.20;92.20;;;;;;4998315;28;87478;-67
2021/03/17 13:17:56;;;;;;;;;;;4.20;92.20;;;;;;4998849;28;87139;-67
2021/03/17 13:20:22;;;;;;;;;;;4.20;92.20;;;;;;5000055;28;87131;-67
2021/03/17 13:22:48;;;;;;;;;;;4.20;92.20;;;;;;5000810;28;87422;-67
2021/03/17 13:25:14;;;;;;;;;;;4.20;92.20;;;;;;5004598;28;86463;-67
2021/03/17 13:27:39;;;;;;;;;;;4.20;92.20;;;;;;5002096;28;87193;-67
2021/03/17 13:30:07;;;;;;;;;;;4.20;92.20;;;;;;5001065;28;88248;-66
2021/03/17 13:32:32;;;;;;;;;;;4.30;92.40;;;;;;4997508;28;88110;-67
2021/03/17 13:34:58;;;;;;;;;;;4.20;92.20;;;;;;4997978;28;88336;-67
2021/03/17 13:37:24;;;;;;;;;;;4.20;92.20;;;;;;4998693;28;88251;-67
2021/03/17 13:39:49;;;;;;;;;;;4.20;92.30;;;;;;5000140;28;87193;-67
2021/03/17 13:42:15;;;;;;;;;;;4.20;92.20;;;;;;5001262;28;87182;-67
2021/03/17 13:44:41;;;;;;;;;;;4.20;92.20;;;;;;5002914;28;88204;-67
2021/03/17 13:47:06;;;;;;;;;;;4.20;92.20;;;;;;4997733;28;87498;-67
2021/03/17 13:49:32;;;;;;;;;;;4.20;92.20;;;;;;4997811;28;87644;-67
2021/03/17 13:51:57;;;;;;;;;;;4.20;92.30;;;;;;4998050;28;87224;-67
2021/03/17 13:54:23;;;;;;;;;;;4.20;92.30;;;;;;4998762;28;87175;-67
2021/03/17 13:56:48;;;;;;;;;;;4.20;92.30;;;;;;4998715;28;90742;-67
2021/03/17 13:59:14;;;;;;;;;;;4.20;92.30;;;;;;5000878;28;87128;-67
2021/03/17 14:01:39;;;;;;;;;;;4.20;92.20;;;;;;5000981;28;87628;-67
2021/03/17 14:04:05;;;;;;;;;;;4.20;92.30;;;;;;5000888;28;88697;-67
2021/03/17 14:06:30;;;;;;;;;;;4.20;92.30;;;;;;5004537;28;87160;-67
2021/03/17 14:08:56;;;;;;;;;;;4.20;92.40;;;;;;5000393;28;87330;-67
2021/03/17 14:11:21;;;;;;;;;;;4.20;92.30;;;;;;4999986;28;87153;-67
2021/03/17 14:13:47;;;;;;;;;;;4.20;92.30;;;;;;4999896;28;87013;-67
2021/03/17 14:16:12;;;;;;;;;;;4.20;92.30;;;;;;5000152;28;88194;-67
2021/03/17 14:18:38;;;;;;;;;;;4.20;92.30;;;;;;4997236;28;91866;-67
2021/03/17 14:21:04;;;;;;;;;;;4.20;92.30;;;;;;4997208;28;88959;-67
2021/03/17 14:23:29;;;;;;;;;;;4.20;92.30;;;;;;4997235;28;88792;-67
2021/03/17 14:25:55;;;;;;;;;;;4.20;92.30;;;;;;4997274;28;87156;-67
2021/03/17 14:28:21;;;;;;;;;;;4.20;92.40;;;;;;4997833;28;88168;-67
2021/03/17 14:30:46;;;;;;;;;;;4.20;92.40;;;;;;4996672;28;87508;-67
2021/03/17 14:33:12;;;;;;;;;;;4.20;92.40;;;;;;4999494;28;87952;-67
2021/03/17 14:35:38;;;;;;;;;;;4.20;92.40;;;;;;4997926;28;88257;-67
2021/03/17 14:38:04;;;;;;;;;;;4.20;92.40;;;;;;5000545;28;87988;-67